09:58
Airports
History
Links
Donate
Help keep this website running!
PayPal
Bitcoin
Information on this page is community maintained and may be outdated or inaccurate and is intended for reference only or PC simulator navigating!
Always use approved charts for navigating.
9I9
Hide-a-Way Hills Resort
Hide-a-Way Hills Resort (9I9)
Logan, Ohio, United States (43138)
4
Lat/Lng:39° 38' 35.24" N / 82° 28' 0.56" W
39.643121 / -82.466823
Elevation:780'ft 238mMSL
ID / ICAO:9I9
Runways:1
Longest:(11-29) 708.1m 2,323ft Grass
Distance To
Airport ID:
Nearby VORs <50NM
Nearby NDBs
Nearby WeatherUpdated 04-23-17 09:53 GMT
Nearby weather at KLHQ, Fairfield County located 12.8 nautical miles from 9I9
Altimeter: 30.07
Visibility: 10.0 statute miles
Wind: 0 knots (000°)
Temp: 4°c 39°f
Humidity: 80.8%

METAR: KLHQ 230953Z AUTO 00000KT 10SM CLR 04/01 A3007 RMK AO2 SLP183 T00390011

(Powered by phpweather)
Runway 11 / 29
Dimensions:708.1 x 30.5m 2323' x 100'ft
Surface:Grass
Runway 11 [A]Runway 29 [B]
Heading:105°TH 285°TH
Lat:
Lng:
39° 38' 38.18"N
82° 28' 14.81"W
39° 38' 32.3"N
82° 27' 46.32"W
Google Map
Nearby Airports
(R) Deeds Field 3.9 NM
OH86 W 275°
(R) Lazy-w 9.0 NM
OI01 S 173°
(U) Fairfield County 12.8 NM
KLHQ (WX) NW 307°
(R) Amanda 14.4 NM
OH61 W 267°
(U) Perry County 14.7 NM
I86 ENE 76°
4 Industry Air Park 15.2 NM
9I6 NNW 336°
(R) Clum 16.7 NM
8OI5 N
VFR Chart
Flight Planning at SkyVector.com